METAR Data
IDs: Format: Raw Decoded Include TAF

Data at: 2114 UTC 01 Oct 2022

EKBI 012050Z AUTO 24008KT 9999 FEW047/// FEW110/// 10/09 Q1003